sensor_id;sensor_type;location;lat;lon;timestamp;temperature;humidity
20155;DHT22;10238;49.556;10.956;2024-01-15T00:01:24;-3.40;99.90
20155;DHT22;10238;49.556;10.956;2024-01-15T00:04:13;-3.40;99.90
20155;DHT22;10238;49.556;10.956;2024-01-15T00:07:01;-3.40;99.90
20155;DHT22;10238;49.556;10.956;2024-01-15T00:09:50;-3.40;99.90
20155;DHT22;10238;49.556;10.956;2024-01-15T00:12:37;-3.40;99.90
20155;DHT22;10238;49.556;10.956;2024-01-15T00:15:25;-3.40;99.90
20155;DHT22;10238;49.556;10.956;2024-01-15T00:18:14;-3.40;99.90
20155;DHT22;10238;49.556;10.956;2024-01-15T00:21:04;-3.40;99.90
20155;DHT22;10238;49.556;10.956;2024-01-15T00:23:52;-3.40;99.90
20155;DHT22;10238;49.556;10.956;2024-01-15T00:26:39;-3.40;99.90
20155;DHT22;10238;49.556;10.956;2024-01-15T00:29:27;-3.30;99.90
20155;DHT22;10238;49.556;10.956;2024-01-15T00:32:15;-3.30;99.90
20155;DHT22;10238;49.556;10.956;2024-01-15T00:35:03;-3.30;99.90
20155;DHT22;10238;49.556;10.956;2024-01-15T00:37:53;-3.30;99.90
20155;DHT22;10238;49.556;10.956;2024-01-15T00:40:41;-3.40;99.90
20155;DHT22;10238;49.556;10.956;2024-01-15T00:43:29;-3.40;99.90
20155;DHT22;10238;49.556;10.956;2024-01-15T00:46:16;-3.40;99.90
20155;DHT22;10238;49.556;10.956;2024-01-15T00:49:04;-3.40;99.90
20155;DHT22;10238;49.556;10.956;2024-01-15T00:51:52;-3.40;99.90
20155;DHT22;10238;49.556;10.956;2024-01-15T00:54:41;-3.30;99.90
20155;DHT22;10238;49.556;10.956;2024-01-15T00:57:28;-3.30;99.90
20155;DHT22;10238;49.556;10.956;2024-01-15T01:00:16;-3.30;99.90
20155;DHT22;10238;49.556;10.956;2024-01-15T01:03:04;-3.30;99.90
20155;DHT22;10238;49.556;10.956;2024-01-15T01:05:52;-3.30;99.90
20155;DHT22;10238;49.556;10.956;2024-01-15T01:08:40;-3.30;99.90
20155;DHT22;10238;49.556;10.956;2024-01-15T01:11:29;-3.20;99.90
20155;DHT22;10238;49.556;10.956;2024-01-15T01:14:17;-3.20;99.90
20155;DHT22;10238;49.556;10.956;2024-01-15T01:17:04;-3.30;99.90
20155;DHT22;10238;49.556;10.956;2024-01-15T01:19:52;-3.20;99.90
20155;DHT22;10238;49.556;10.956;2024-01-15T01:22:40;-3.20;99.90
20155;DHT22;10238;49.556;10.956;2024-01-15T01:25:28;-3.20;99.90
20155;DHT22;10238;49.556;10.956;2024-01-15T01:28:17;-3.20;99.90
20155;DHT22;10238;49.556;10.956;2024-01-15T01:31:05;-3.20;99.90
20155;DHT22;10238;49.556;10.956;2024-01-15T01:33:52;-3.20;99.90
20155;DHT22;10238;49.556;10.956;2024-01-15T01:36:41;-3.20;99.90
20155;DHT22;10238;49.556;10.956;2024-01-15T01:39:29;-3.20;99.90
20155;DHT22;10238;49.556;10.956;2024-01-15T01:42:19;-3.10;99.90
20155;DHT22;10238;49.556;10.956;2024-01-15T01:45:09;-3.10;99.90
20155;DHT22;10238;49.556;10.956;2024-01-15T01:47:57;-3.10;99.90
20155;DHT22;10238;49.556;10.956;2024-01-15T01:50:45;-3.10;99.90
20155;DHT22;10238;49.556;10.956;2024-01-15T01:53:35;-3.10;99.90
20155;DHT22;10238;49.556;10.956;2024-01-15T01:56:24;-3.10;99.90
20155;DHT22;10238;49.556;10.956;2024-01-15T01:59:13;-3.10;99.90
20155;DHT22;10238;49.556;10.956;2024-01-15T02:02:03;-3.00;99.90
20155;DHT22;10238;49.556;10.956;2024-01-15T02:04:51;-3.00;99.90
20155;DHT22;10238;49.556;10.956;2024-01-15T02:07:39;-3.00;99.90
20155;DHT22;10238;49.556;10.956;2024-01-15T02:10:28;-3.00;99.90
20155;DHT22;10238;49.556;10.956;2024-01-15T02:13:16;-3.00;99.90
20155;DHT22;10238;49.556;10.956;2024-01-15T02:16:04;-3.00;99.90
20155;DHT22;10238;49.556;10.956;2024-01-15T02:18:53;-3.00;99.90
20155;DHT22;10238;49.556;10.956;2024-01-15T02:21:41;-3.00;99.90
20155;DHT22;10238;49.556;10.956;2024-01-15T02:24:30;-2.90;99.90
20155;DHT22;10238;49.556;10.956;2024-01-15T02:27:20;-2.90;99.90
20155;DHT22;10238;49.556;10.956;2024-01-15T02:30:08;-2.90;99.90
20155;DHT22;10238;49.556;10.956;2024-01-15T02:32:58;-2.90;99.90
20155;DHT22;10238;49.556;10.956;2024-01-15T02:35:46;-2.80;99.90
20155;DHT22;10238;49.556;10.956;2024-01-15T02:38:36;-2.90;99.90
20155;DHT22;10238;49.556;10.956;2024-01-15T02:41:25;-2.90;99.90
20155;DHT22;10238;49.556;10.956;2024-01-15T02:44:13;-2.80;99.90
20155;DHT22;10238;49.556;10.956;2024-01-15T02:47:00;-2.80;99.90
20155;DHT22;10238;49.556;10.956;2024-01-15T02:49:48;-2.80;99.90
20155;DHT22;10238;49.556;10.956;2024-01-15T02:52:36;-2.80;99.90
20155;DHT22;10238;49.556;10.956;2024-01-15T02:55:23;-2.80;99.90
20155;DHT22;10238;49.556;10.956;2024-01-15T02:58:12;-2.80;99.90
20155;DHT22;10238;49.556;10.956;2024-01-15T03:01:00;-2.70;99.90
20155;DHT22;10238;49.556;10.956;2024-01-15T03:03:48;-2.70;99.90
20155;DHT22;10238;49.556;10.956;2024-01-15T03:06:36;-2.70;99.90
20155;DHT22;10238;49.556;10.956;2024-01-15T03:09:23;-2.70;99.90
20155;DHT22;10238;49.556;10.956;2024-01-15T03:12:11;-2.70;99.90
20155;DHT22;10238;49.556;10.956;2024-01-15T03:15:00;-2.70;99.90
20155;DHT22;10238;49.556;10.956;2024-01-15T03:17:48;-2.70;99.90
20155;DHT22;10238;49.556;10.956;2024-01-15T03:20:35;-2.60;99.90
20155;DHT22;10238;49.556;10.956;2024-01-15T03:23:23;-2.60;99.90
20155;DHT22;10238;49.556;10.956;2024-01-15T03:26:10;-2.60;99.90
20155;DHT22;10238;49.556;10.956;2024-01-15T03:28:58;-2.60;99.90
20155;DHT22;10238;49.556;10.956;2024-01-15T03:31:48;-2.60;99.90
20155;DHT22;10238;49.556;10.956;2024-01-15T03:34:36;-2.60;99.90
20155;DHT22;10238;49.556;10.956;2024-01-15T03:37:25;-2.60;99.90
20155;DHT22;10238;49.556;10.956;2024-01-15T03:40:13;-2.60;99.90
20155;DHT22;10238;49.556;10.956;2024-01-15T03:43:06;-2.60;99.90
20155;DHT22;10238;49.556;10.956;2024-01-15T03:45:54;-2.60;99.90
20155;DHT22;10238;49.556;10.956;2024-01-15T03:48:43;-2.60;99.90
20155;DHT22;10238;49.556;10.956;2024-01-15T03:51:32;-2.60;99.90
20155;DHT22;10238;49.556;10.956;2024-01-15T03:54:19;-2.60;99.90
20155;DHT22;10238;49.556;10.956;2024-01-15T03:57:07;-2.60;99.90
20155;DHT22;10238;49.556;10.956;2024-01-15T03:59:54;-2.50;99.90
20155;DHT22;10238;49.556;10.956;2024-01-15T04:02:42;-2.50;99.90
20155;DHT22;10238;49.556;10.956;2024-01-15T04:05:31;-2.50;99.90
20155;DHT22;10238;49.556;10.956;2024-01-15T04:08:19;-2.50;99.90
20155;DHT22;10238;49.556;10.956;2024-01-15T04:11:06;-2.50;99.90
20155;DHT22;10238;49.556;10.956;2024-01-15T04:13:54;-2.40;99.90
20155;DHT22;10238;49.556;10.956;2024-01-15T04:16:42;-2.40;99.90
20155;DHT22;10238;49.556;10.956;2024-01-15T04:19:29;-2.40;99.90
20155;DHT22;10238;49.556;10.956;2024-01-15T04:22:18;-2.40;99.90
20155;DHT22;10238;49.556;10.956;2024-01-15T04:25:07;-2.40;99.90
20155;DHT22;10238;49.556;10.956;2024-01-15T04:27:55;-2.40;99.90
20155;DHT22;10238;49.556;10.956;2024-01-15T04:30:42;-2.30;99.90
20155;DHT22;10238;49.556;10.956;2024-01-15T04:33:30;-2.30;99.90
20155;DHT22;10238;49.556;10.956;2024-01-15T04:36:18;-2.30;99.90
20155;DHT22;10238;49.556;10.956;2024-01-15T04:39:07;-2.30;99.90
20155;DHT22;10238;49.556;10.956;2024-01-15T04:41:55;-2.30;99.90
20155;DHT22;10238;49.556;10.956;2024-01-15T04:44:43;-2.30;99.90
20155;DHT22;10238;49.556;10.956;2024-01-15T04:47:30;-2.30;99.90
20155;DHT22;10238;49.556;10.956;2024-01-15T04:50:18;-2.20;99.90
20155;DHT22;10238;49.556;10.956;2024-01-15T04:53:06;-2.20;99.90
20155;DHT22;10238;49.556;10.956;2024-01-15T04:55:58;-2.20;99.90
20155;DHT22;10238;49.556;10.956;2024-01-15T04:58:46;-2.20;99.90
20155;DHT22;10238;49.556;10.956;2024-01-15T05:01:33;-2.20;99.90
20155;DHT22;10238;49.556;10.956;2024-01-15T05:04:21;-2.20;99.90
20155;DHT22;10238;49.556;10.956;2024-01-15T05:07:10;-2.20;99.90
20155;DHT22;10238;49.556;10.956;2024-01-15T05:09:58;-2.20;99.90
20155;DHT22;10238;49.556;10.956;2024-01-15T05:12:47;-2.20;99.90
20155;DHT22;10238;49.556;10.956;2024-01-15T05:15:35;-2.20;99.90
20155;DHT22;10238;49.556;10.956;2024-01-15T05:18:23;-2.10;99.90
20155;DHT22;10238;49.556;10.956;2024-01-15T05:21:11;-2.10;99.90
20155;DHT22;10238;49.556;10.956;2024-01-15T05:23:59;-2.20;99.90
20155;DHT22;10238;49.556;10.956;2024-01-15T05:26:46;-2.10;99.90
20155;DHT22;10238;49.556;10.956;2024-01-15T05:29:35;-2.10;99.90
20155;DHT22;10238;49.556;10.956;2024-01-15T05:32:23;-2.10;99.90
20155;DHT22;10238;49.556;10.956;2024-01-15T05:35:11;-2.10;99.90
20155;DHT22;10238;49.556;10.956;2024-01-15T05:37:58;-2.10;99.90
20155;DHT22;10238;49.556;10.956;2024-01-15T05:40:46;-2.10;99.90
20155;DHT22;10238;49.556;10.956;2024-01-15T05:43:34;-2.10;99.90
20155;DHT22;10238;49.556;10.956;2024-01-15T05:46:23;-2.10;99.90
20155;DHT22;10238;49.556;10.956;2024-01-15T05:49:11;-2.10;99.90
20155;DHT22;10238;49.556;10.956;2024-01-15T05:51:59;-2.10;99.90
20155;DHT22;10238;49.556;10.956;2024-01-15T05:54:46;-2.10;99.90
20155;DHT22;10238;49.556;10.956;2024-01-15T05:57:34;-2.00;99.90
20155;DHT22;10238;49.556;10.956;2024-01-15T06:00:22;-2.00;99.90
20155;DHT22;10238;49.556;10.956;2024-01-15T06:03:11;-2.00;99.90
20155;DHT22;10238;49.556;10.956;2024-01-15T06:05:59;-2.00;99.90
20155;DHT22;10238;49.556;10.956;2024-01-15T06:08:46;-2.00;99.90
20155;DHT22;10238;49.556;10.956;2024-01-15T06:11:34;-2.00;99.90
20155;DHT22;10238;49.556;10.956;2024-01-15T06:14:22;-2.00;99.90
20155;DHT22;10238;49.556;10.956;2024-01-15T06:17:10;-2.00;99.90
20155;DHT22;10238;49.556;10.956;2024-01-15T06:19:59;-2.10;99.90
20155;DHT22;10238;49.556;10.956;2024-01-15T06:22:47;-2.10;99.90
20155;DHT22;10238;49.556;10.956;2024-01-15T06:25:35;-2.10;99.90
20155;DHT22;10238;49.556;10.956;2024-01-15T06:28:22;-2.10;99.90
20155;DHT22;10238;49.556;10.956;2024-01-15T06:31:10;-2.10;99.90
20155;DHT22;10238;49.556;10.956;2024-01-15T06:33:58;-2.10;99.90
20155;DHT22;10238;49.556;10.956;2024-01-15T06:36:47;-2.00;99.90
20155;DHT22;10238;49.556;10.956;2024-01-15T06:39:35;-2.00;99.90
20155;DHT22;10238;49.556;10.956;2024-01-15T06:42:23;-2.00;99.90
20155;DHT22;10238;49.556;10.956;2024-01-15T06:45:11;-2.00;99.90
20155;DHT22;10238;49.556;10.956;2024-01-15T06:47:58;-2.00;99.90
20155;DHT22;10238;49.556;10.956;2024-01-15T06:50:46;-2.00;99.90
20155;DHT22;10238;49.556;10.956;2024-01-15T06:53:36;-2.00;99.90
20155;DHT22;10238;49.556;10.956;2024-01-15T06:56:24;-2.00;99.90
20155;DHT22;10238;49.556;10.956;2024-01-15T06:59:11;-2.00;99.90
20155;DHT22;10238;49.556;10.956;2024-01-15T07:02:04;-2.00;99.90
20155;DHT22;10238;49.556;10.956;2024-01-15T07:04:52;-1.90;99.90
20155;DHT22;10238;49.556;10.956;2024-01-15T07:07:40;-1.90;99.90
20155;DHT22;10238;49.556;10.956;2024-01-15T07:10:30;-1.90;99.90
20155;DHT22;10238;49.556;10.956;2024-01-15T07:13:21;-1.90;99.90
20155;DHT22;10238;49.556;10.956;2024-01-15T07:16:09;-1.90;99.90
20155;DHT22;10238;49.556;10.956;2024-01-15T07:18:57;-1.90;99.90
20155;DHT22;10238;49.556;10.956;2024-01-15T07:21:44;-1.90;99.90
20155;DHT22;10238;49.556;10.956;2024-01-15T07:24:33;-1.80;99.90
20155;DHT22;10238;49.556;10.956;2024-01-15T07:27:23;-1.90;99.90
20155;DHT22;10238;49.556;10.956;2024-01-15T07:30:11;-1.80;99.90
20155;DHT22;10238;49.556;10.956;2024-01-15T07:32:59;-1.80;99.90
20155;DHT22;10238;49.556;10.956;2024-01-15T07:35:47;-1.80;99.90
20155;DHT22;10238;49.556;10.956;2024-01-15T07:38:35;-1.80;99.90
20155;DHT22;10238;49.556;10.956;2024-01-15T07:41:23;-1.80;99.90
20155;DHT22;10238;49.556;10.956;2024-01-15T07:44:12;-1.80;99.90
20155;DHT22;10238;49.556;10.956;2024-01-15T07:46:59;-1.70;99.90
20155;DHT22;10238;49.556;10.956;2024-01-15T07:49:47;-1.70;99.90
20155;DHT22;10238;49.556;10.956;2024-01-15T07:52:35;-1.70;99.90
20155;DHT22;10238;49.556;10.956;2024-01-15T07:55:22;-1.70;99.90
20155;DHT22;10238;49.556;10.956;2024-01-15T07:58:10;-1.70;99.90
20155;DHT22;10238;49.556;10.956;2024-01-15T08:01:03;-1.70;99.90
20155;DHT22;10238;49.556;10.956;2024-01-15T08:03:53;-1.60;99.90
20155;DHT22;10238;49.556;10.956;2024-01-15T08:06:42;-1.60;99.90
20155;DHT22;10238;49.556;10.956;2024-01-15T08:09:31;-1.60;99.90
20155;DHT22;10238;49.556;10.956;2024-01-15T08:12:18;-1.50;99.90
20155;DHT22;10238;49.556;10.956;2024-01-15T08:15:06;-1.60;99.90
20155;DHT22;10238;49.556;10.956;2024-01-15T08:17:55;-1.50;99.90
20155;DHT22;10238;49.556;10.956;2024-01-15T08:20:44;-1.50;99.90
20155;DHT22;10238;49.556;10.956;2024-01-15T08:23:31;-1.50;99.90
20155;DHT22;10238;49.556;10.956;2024-01-15T08:26:21;-1.40;99.90
20155;DHT22;10238;49.556;10.956;2024-01-15T08:29:09;-1.30;99.90
20155;DHT22;10238;49.556;10.956;2024-01-15T08:31:57;-1.30;99.90
20155;DHT22;10238;49.556;10.956;2024-01-15T08:34:46;-1.20;99.90
20155;DHT22;10238;49.556;10.956;2024-01-15T08:37:38;-1.20;99.90
20155;DHT22;10238;49.556;10.956;2024-01-15T08:40:26;-1.20;99.90
20155;DHT22;10238;49.556;10.956;2024-01-15T08:43:14;-1.20;99.90
20155;DHT22;10238;49.556;10.956;2024-01-15T08:46:02;-1.10;99.90
20155;DHT22;10238;49.556;10.956;2024-01-15T08:48:50;-1.10;99.90
20155;DHT22;10238;49.556;10.956;2024-01-15T08:51:40;-1.00;99.90
20155;DHT22;10238;49.556;10.956;2024-01-15T08:54:27;-1.10;99.90
20155;DHT22;10238;49.556;10.956;2024-01-15T08:57:15;-1.00;99.90
20155;DHT22;10238;49.556;10.956;2024-01-15T09:00:03;-1.00;99.90
20155;DHT22;10238;49.556;10.956;2024-01-15T09:02:54;-1.00;99.90
20155;DHT22;10238;49.556;10.956;2024-01-15T09:05:42;-1.00;99.90
20155;DHT22;10238;49.556;10.956;2024-01-15T09:08:32;-1.00;99.90
20155;DHT22;10238;49.556;10.956;2024-01-15T09:11:19;-0.90;99.90
20155;DHT22;10238;49.556;10.956;2024-01-15T09:14:07;-0.90;99.90
20155;DHT22;10238;49.556;10.956;2024-01-15T09:16:55;-0.80;99.90
20155;DHT22;10238;49.556;10.956;2024-01-15T09:19:43;-0.80;99.90
20155;DHT22;10238;49.556;10.956;2024-01-15T09:22:32;-0.70;99.90
20155;DHT22;10238;49.556;10.956;2024-01-15T09:25:21;-0.50;99.90
20155;DHT22;10238;49.556;10.956;2024-01-15T09:28:09;-0.30;99.90
20155;DHT22;10238;49.556;10.956;2024-01-15T09:30:56;-0.20;99.90
20155;DHT22;10238;49.556;10.956;2024-01-15T09:33:44;-0.10;99.90
20155;DHT22;10238;49.556;10.956;2024-01-15T09:36:31;0.00;99.90
20155;DHT22;10238;49.556;10.956;2024-01-15T09:39:19;0.20;99.90
20155;DHT22;10238;49.556;10.956;2024-01-15T09:42:09;0.20;99.90
20155;DHT22;10238;49.556;10.956;2024-01-15T09:44:58;0.20;99.90
20155;DHT22;10238;49.556;10.956;2024-01-15T09:47:46;0.20;99.90
20155;DHT22;10238;49.556;10.956;2024-01-15T09:50:34;0.20;99.90
20155;DHT22;10238;49.556;10.956;2024-01-15T09:53:24;0.20;99.90
20155;DHT22;10238;49.556;10.956;2024-01-15T09:56:13;0.10;99.90
20155;DHT22;10238;49.556;10.956;2024-01-15T09:59:03;0.30;99.90
20155;DHT22;10238;49.556;10.956;2024-01-15T10:01:52;0.30;99.90
20155;DHT22;10238;49.556;10.956;2024-01-15T10:04:43;0.30;99.90
20155;DHT22;10238;49.556;10.956;2024-01-15T10:07:35;0.30;99.90
20155;DHT22;10238;49.556;10.956;2024-01-15T10:10:24;0.40;99.90
20155;DHT22;10238;49.556;10.956;2024-01-15T10:13:12;0.40;99.90
20155;DHT22;10238;49.556;10.956;2024-01-15T10:16:03;0.30;99.90
20155;DHT22;10238;49.556;10.956;2024-01-15T10:18:51;0.30;99.90
20155;DHT22;10238;49.556;10.956;2024-01-15T10:21:39;0.40;99.90
20155;DHT22;10238;49.556;10.956;2024-01-15T10:24:28;0.40;99.90
20155;DHT22;10238;49.556;10.956;2024-01-15T10:27:16;0.50;99.90
20155;DHT22;10238;49.556;10.956;2024-01-15T10:30:05;0.60;99.90
20155;DHT22;10238;49.556;10.956;2024-01-15T10:32:59;0.60;99.90
20155;DHT22;10238;49.556;10.956;2024-01-15T10:35:47;0.60;99.90
20155;DHT22;10238;49.556;10.956;2024-01-15T10:38:34;0.70;99.90
20155;DHT22;10238;49.556;10.956;2024-01-15T10:41:24;0.60;99.90
20155;DHT22;10238;49.556;10.956;2024-01-15T10:44:11;0.50;99.90
20155;DHT22;10238;49.556;10.956;2024-01-15T10:46:59;0.50;99.90
20155;DHT22;10238;49.556;10.956;2024-01-15T10:49:49;0.30;99.90
20155;DHT22;10238;49.556;10.956;2024-01-15T10:52:40;0.50;99.90
20155;DHT22;10238;49.556;10.956;2024-01-15T10:55:29;0.50;99.90
20155;DHT22;10238;49.556;10.956;2024-01-15T10:58:18;0.40;99.90
20155;DHT22;10238;49.556;10.956;2024-01-15T11:01:08;0.40;99.90
20155;DHT22;10238;49.556;10.956;2024-01-15T11:03:57;0.40;99.90
20155;DHT22;10238;49.556;10.956;2024-01-15T11:06:50;0.40;99.90
20155;DHT22;10238;49.556;10.956;2024-01-15T11:09:41;0.40;99.90
20155;DHT22;10238;49.556;10.956;2024-01-15T11:12:31;0.40;99.90
20155;DHT22;10238;49.556;10.956;2024-01-15T11:15:19;0.60;99.90
20155;DHT22;10238;49.556;10.956;2024-01-15T11:18:09;0.60;99.90
20155;DHT22;10238;49.556;10.956;2024-01-15T11:21:25;0.90;99.90
20155;DHT22;10238;49.556;10.956;2024-01-15T11:24:38;1.00;99.90
20155;DHT22;10238;49.556;10.956;2024-01-15T11:27:40;1.00;99.90
20155;DHT22;10238;49.556;10.956;2024-01-15T11:30:29;1.00;99.90
20155;DHT22;10238;49.556;10.956;2024-01-15T11:33:32;1.00;99.90
20155;DHT22;10238;49.556;10.956;2024-01-15T11:36:20;1.00;99.90
20155;DHT22;10238;49.556;10.956;2024-01-15T11:40:03;1.00;99.90
20155;DHT22;10238;49.556;10.956;2024-01-15T11:42:51;1.00;99.90
20155;DHT22;10238;49.556;10.956;2024-01-15T11:45:39;0.90;99.90
20155;DHT22;10238;49.556;10.956;2024-01-15T11:48:53;1.00;99.90
20155;DHT22;10238;49.556;10.956;2024-01-15T11:52:22;1.00;99.90
20155;DHT22;10238;49.556;10.956;2024-01-15T11:55:30;1.00;99.90
20155;DHT22;10238;49.556;10.956;2024-01-15T11:58:23;1.00;99.90
20155;DHT22;10238;49.556;10.956;2024-01-15T12:01:25;1.00;99.90
20155;DHT22;10238;49.556;10.956;2024-01-15T12:04:17;1.00;99.90
20155;DHT22;10238;49.556;10.956;2024-01-15T12:07:17;1.10;99.90
20155;DHT22;10238;49.556;10.956;2024-01-15T12:10:09;1.10;99.90
20155;DHT22;10238;49.556;10.956;2024-01-15T12:13:16;1.00;99.90
20155;DHT22;10238;49.556;10.956;2024-01-15T12:16:11;0.90;99.90
20155;DHT22;10238;49.556;10.956;2024-01-15T12:18:59;1.00;99.90
20155;DHT22;10238;49.556;10.956;2024-01-15T12:22:01;1.10;99.90
20155;DHT22;10238;49.556;10.956;2024-01-15T12:30:06;1.30;99.90
20155;DHT22;10238;49.556;10.956;2024-01-15T12:33:04;1.30;99.90
20155;DHT22;10238;49.556;10.956;2024-01-15T12:36:21;1.20;99.90
20155;DHT22;10238;49.556;10.956;2024-01-15T12:39:11;1.10;99.90
20155;DHT22;10238;49.556;10.956;2024-01-15T12:41:59;1.10;99.90
20155;DHT22;10238;49.556;10.956;2024-01-15T12:44:46;1.10;99.90
20155;DHT22;10238;49.556;10.956;2024-01-15T12:47:36;1.10;99.90
20155;DHT22;10238;49.556;10.956;2024-01-15T12:50:24;1.10;99.90
20155;DHT22;10238;49.556;10.956;2024-01-15T12:53:12;1.10;99.90
20155;DHT22;10238;49.556;10.956;2024-01-15T12:56:00;1.10;99.90
20155;DHT22;10238;49.556;10.956;2024-01-15T12:58:47;1.10;99.90
20155;DHT22;10238;49.556;10.956;2024-01-15T13:01:35;1.10;99.90
20155;DHT22;10238;49.556;10.956;2024-01-15T13:04:25;1.10;99.90
20155;DHT22;10238;49.556;10.956;2024-01-15T13:07:12;1.10;99.90
20155;DHT22;10238;49.556;10.956;2024-01-15T13:10:00;1.00;99.90
20155;DHT22;10238;49.556;10.956;2024-01-15T13:12:48;1.00;99.90
20155;DHT22;10238;49.556;10.956;2024-01-15T13:15:36;0.90;99.90
20155;DHT22;10238;49.556;10.956;2024-01-15T13:18:24;0.90;99.90
20155;DHT22;10238;49.556;10.956;2024-01-15T13:21:13;0.90;99.90
20155;DHT22;10238;49.556;10.956;2024-01-15T13:24:01;0.80;99.90
20155;DHT22;10238;49.556;10.956;2024-01-15T13:26:51;0.70;99.90
20155;DHT22;10238;49.556;10.956;2024-01-15T13:29:39;0.70;99.90
20155;DHT22;10238;49.556;10.956;2024-01-15T13:32:28;0.70;99.90
20155;DHT22;10238;49.556;10.956;2024-01-15T13:35:16;0.70;99.90
20155;DHT22;10238;49.556;10.956;2024-01-15T13:38:05;0.70;99.90
20155;DHT22;10238;49.556;10.956;2024-01-15T13:40:54;0.70;99.90
20155;DHT22;10238;49.556;10.956;2024-01-15T13:43:42;0.60;99.90
20155;DHT22;10238;49.556;10.956;2024-01-15T13:46:29;0.60;99.90
20155;DHT22;10238;49.556;10.956;2024-01-15T13:49:17;0.60;99.90
20155;DHT22;10238;49.556;10.956;2024-01-15T13:52:05;0.50;99.90
20155;DHT22;10238;49.556;10.956;2024-01-15T13:54:54;0.50;99.90
20155;DHT22;10238;49.556;10.956;2024-01-15T13:57:42;0.50;99.90
20155;DHT22;10238;49.556;10.956;2024-01-15T14:00:30;0.50;99.90
20155;DHT22;10238;49.556;10.956;2024-01-15T14:03:18;0.50;99.90
20155;DHT22;10238;49.556;10.956;2024-01-15T14:06:06;0.50;99.90
20155;DHT22;10238;49.556;10.956;2024-01-15T14:08:57;0.40;99.90
20155;DHT22;10238;49.556;10.956;2024-01-15T14:11:46;0.50;99.90
20155;DHT22;10238;49.556;10.956;2024-01-15T14:14:33;0.50;99.90
20155;DHT22;10238;49.556;10.956;2024-01-15T14:17:21;0.50;99.90
20155;DHT22;10238;49.556;10.956;2024-01-15T14:20:09;0.60;99.90
20155;DHT22;10238;49.556;10.956;2024-01-15T14:22:58;0.50;99.90
20155;DHT22;10238;49.556;10.956;2024-01-15T14:25:45;0.60;99.90
20155;DHT22;10238;49.556;10.956;2024-01-15T14:28:34;0.60;99.90
20155;DHT22;10238;49.556;10.956;2024-01-15T14:31:22;0.60;99.90
20155;DHT22;10238;49.556;10.956;2024-01-15T14:34:12;0.60;99.90
20155;DHT22;10238;49.556;10.956;2024-01-15T14:37:00;0.60;99.90
20155;DHT22;10238;49.556;10.956;2024-01-15T14:39:48;0.50;99.90
20155;DHT22;10238;49.556;10.956;2024-01-15T14:42:36;0.50;99.90
20155;DHT22;10238;49.556;10.956;2024-01-15T14:45:25;0.50;99.90
20155;DHT22;10238;49.556;10.956;2024-01-15T14:48:13;0.40;99.90
20155;DHT22;10238;49.556;10.956;2024-01-15T14:51:01;0.40;99.90
20155;DHT22;10238;49.556;10.956;2024-01-15T14:53:49;0.40;99.90
20155;DHT22;10238;49.556;10.956;2024-01-15T14:56:37;0.40;99.90
20155;DHT22;10238;49.556;10.956;2024-01-15T14:59:25;0.30;99.90
20155;DHT22;10238;49.556;10.956;2024-01-15T15:02:16;0.40;99.90
20155;DHT22;10238;49.556;10.956;2024-01-15T15:05:04;0.30;99.90
20155;DHT22;10238;49.556;10.956;2024-01-15T15:07:53;0.30;99.90
20155;DHT22;10238;49.556;10.956;2024-01-15T15:10:41;0.30;99.90
20155;DHT22;10238;49.556;10.956;2024-01-15T15:13:29;0.30;99.90
20155;DHT22;10238;49.556;10.956;2024-01-15T15:16:30;0.30;99.90
20155;DHT22;10238;49.556;10.956;2024-01-15T15:19:19;0.20;99.90
20155;DHT22;10238;49.556;10.956;2024-01-15T15:22:07;0.20;99.90
20155;DHT22;10238;49.556;10.956;2024-01-15T15:24:56;0.10;99.90
20155;DHT22;10238;49.556;10.956;2024-01-15T15:27:43;0.10;99.90
20155;DHT22;10238;49.556;10.956;2024-01-15T15:30:31;0.00;99.90
20155;DHT22;10238;49.556;10.956;2024-01-15T15:33:19;0.00;99.90
20155;DHT22;10238;49.556;10.956;2024-01-15T15:36:08;0.00;99.90
20155;DHT22;10238;49.556;10.956;2024-01-15T15:38:56;-0.10;99.90
20155;DHT22;10238;49.556;10.956;2024-01-15T15:41:44;-0.10;99.90
20155;DHT22;10238;49.556;10.956;2024-01-15T15:44:32;-0.10;99.90
20155;DHT22;10238;49.556;10.956;2024-01-15T15:47:20;-0.10;99.90
20155;DHT22;10238;49.556;10.956;2024-01-15T15:50:08;-0.10;99.90
20155;DHT22;10238;49.556;10.956;2024-01-15T15:52:57;-0.10;99.90
20155;DHT22;10238;49.556;10.956;2024-01-15T15:55:47;-0.10;99.90
20155;DHT22;10238;49.556;10.956;2024-01-15T15:58:35;-0.10;99.90
20155;DHT22;10238;49.556;10.956;2024-01-15T16:01:23;-0.20;99.90
20155;DHT22;10238;49.556;10.956;2024-01-15T16:04:11;-0.10;99.90
20155;DHT22;10238;49.556;10.956;2024-01-15T16:07:01;-0.10;99.90
20155;DHT22;10238;49.556;10.956;2024-01-15T16:09:51;0.00;99.90
20155;DHT22;10238;49.556;10.956;2024-01-15T16:12:39;-0.10;99.90
20155;DHT22;10238;49.556;10.956;2024-01-15T16:15:27;-0.10;99.90
20155;DHT22;10238;49.556;10.956;2024-01-15T16:18:15;-0.10;99.90
20155;DHT22;10238;49.556;10.956;2024-01-15T16:21:23;-0.10;99.90
20155;DHT22;10238;49.556;10.956;2024-01-15T16:24:30;-0.20;99.90
20155;DHT22;10238;49.556;10.956;2024-01-15T16:27:36;-0.20;99.90
20155;DHT22;10238;49.556;10.956;2024-01-15T16:30:24;-0.20;99.90
20155;DHT22;10238;49.556;10.956;2024-01-15T16:33:27;-0.20;99.90
20155;DHT22;10238;49.556;10.956;2024-01-15T16:36:14;-0.20;99.90
20155;DHT22;10238;49.556;10.956;2024-01-15T16:39:03;-0.30;99.90
20155;DHT22;10238;49.556;10.956;2024-01-15T16:41:51;-0.20;99.90
20155;DHT22;10238;49.556;10.956;2024-01-15T16:44:40;-0.20;99.90
20155;DHT22;10238;49.556;10.956;2024-01-15T16:47:28;-0.20;99.90
20155;DHT22;10238;49.556;10.956;2024-01-15T16:50:15;-0.20;99.90
20155;DHT22;10238;49.556;10.956;2024-01-15T16:53:05;-0.20;99.90
20155;DHT22;10238;49.556;10.956;2024-01-15T16:55:53;-0.20;99.90
20155;DHT22;10238;49.556;10.956;2024-01-15T16:58:41;-0.20;99.90
20155;DHT22;10238;49.556;10.956;2024-01-15T17:01:30;-0.20;99.90
20155;DHT22;10238;49.556;10.956;2024-01-15T17:04:17;-0.20;99.90
20155;DHT22;10238;49.556;10.956;2024-01-15T17:07:05;-0.30;99.90
20155;DHT22;10238;49.556;10.956;2024-01-15T17:09:53;-0.30;99.90
20155;DHT22;10238;49.556;10.956;2024-01-15T17:12:40;-0.30;99.90
20155;DHT22;10238;49.556;10.956;2024-01-15T17:15:28;-0.30;99.90
20155;DHT22;10238;49.556;10.956;2024-01-15T17:18:17;-0.30;99.90
20155;DHT22;10238;49.556;10.956;2024-01-15T17:21:06;-0.30;99.90
20155;DHT22;10238;49.556;10.956;2024-01-15T17:23:53;-0.30;99.90
20155;DHT22;10238;49.556;10.956;2024-01-15T17:26:40;-0.30;99.90
20155;DHT22;10238;49.556;10.956;2024-01-15T17:29:28;-0.30;99.90
20155;DHT22;10238;49.556;10.956;2024-01-15T17:32:16;-0.30;99.90
20155;DHT22;10238;49.556;10.956;2024-01-15T17:35:06;-0.20;99.90
20155;DHT22;10238;49.556;10.956;2024-01-15T17:37:54;-0.20;99.90
20155;DHT22;10238;49.556;10.956;2024-01-15T17:40:42;-0.20;99.90
20155;DHT22;10238;49.556;10.956;2024-01-15T17:43:30;-0.20;99.90